Time;durP1;ratioP1;P1;durP2;ratioP2;P2;SDS_P1;SDS_P2;PMS_P1;PMS_P2;Temp;Humidity;BMP_temperature;BMP_pressure;BME280_temperature;BME280_humidity;BME280_pressure;Samples;Min_cycle;Max_cycle;Signal;HPM_P1;HPM_P2
2022/08/07 00:00:14;;;;;;;0.20;0.20;;;;;;;23.06;32.81;100521.59;5075238;28;20366;-68
2022/08/07 00:02:39;;;;;;;0.63;0.20;;;;;;;23.05;32.82;100521.84;5075848;28;20036;-67
2022/08/07 00:05:05;;;;;;;0.20;0.20;;;;;;;23.07;32.63;100525.13;5075006;28;20084;-67
2022/08/07 00:07:30;;;;;;;0.25;0.25;;;;;;;23.06;32.71;100532.50;5074968;28;20034;-67
2022/08/07 00:09:56;;;;;;;0.20;0.20;;;;;;;23.06;32.75;100527.06;5074890;28;20074;-67
2022/08/07 00:12:21;;;;;;;0.25;0.20;;;;;;;23.05;32.73;100528.13;5075169;28;20032;-67
2022/08/07 00:14:47;;;;;;;0.10;0.10;;;;;;;23.06;32.66;100535.22;5075303;28;20021;-68
2022/08/07 00:17:12;;;;;;;0.22;0.10;;;;;;;23.08;32.74;100536.84;5074968;28;20039;-68
2022/08/07 00:19:37;;;;;;;0.20;0.20;;;;;;;23.07;32.59;100530.59;5074843;28;20024;-68
2022/08/07 00:22:03;;;;;;;0.20;0.20;;;;;;;23.07;32.63;100536.03;5074939;28;20455;-68
2022/08/07 00:24:29;;;;;;;0.10;0.10;;;;;;;23.07;32.75;100536.03;5074941;28;20427;-68
2022/08/07 00:26:54;;;;;;;0.20;0.20;;;;;;;23.06;32.62;100539.88;5074547;28;20435;-68
2022/08/07 00:29:24;;;;;;;0.10;0.10;;;;;;;23.06;32.63;100528.97;5074655;28;20020;-67
2022/08/07 00:31:51;;;;;;;0.20;0.20;;;;;;;23.04;33.00;100531.94;5074416;28;20055;-67
2022/08/07 00:34:16;;;;;;;0.10;0.10;;;;;;;23.04;32.98;100534.66;5075011;28;20029;-67
2022/08/07 00:36:42;;;;;;;0.17;0.17;;;;;;;23.05;32.63;100530.00;5074435;28;20078;-68
2022/08/07 00:39:08;;;;;;;0.13;0.13;;;;;;;23.06;32.73;100534.41;5074766;28;20056;-68
2022/08/07 00:41:33;;;;;;;0.20;0.20;;;;;;;23.05;32.71;100536.31;5074431;28;20425;-67
2022/08/07 00:43:59;;;;;;;0.10;0.10;;;;;;;23.05;32.69;100543.63;5074625;28;20060;-68
2022/08/07 00:46:25;;;;;;;0.20;0.20;;;;;;;23.04;32.91;100531.94;5074124;28;20025;-68
2022/08/07 00:48:50;;;;;;;0.20;0.20;;;;;;;23.03;32.91;100535.72;5074128;28;20028;-68
2022/08/07 00:51:15;;;;;;;0.20;0.20;;;;;;;23.05;32.84;100539.03;5074254;28;20165;-68
2022/08/07 00:53:41;;;;;;;0.20;0.20;;;;;;;23.04;32.98;100534.66;5074288;28;20028;-68
2022/08/07 00:56:07;;;;;;;0.17;0.17;;;;;;;23.04;32.92;100542.84;5074104;28;20086;-68
2022/08/07 00:58:32;;;;;;;0.20;0.20;;;;;;;23.04;32.77;100542.84;5056135;28;20082;-69
2022/08/07 01:00:57;;;;;;;0.10;0.10;;;;;;;23.06;32.87;100542.59;5053763;28;20029;-68
2022/08/07 01:03:23;;;;;;;0.20;0.20;;;;;;;23.05;32.87;100544.47;5053719;28;20021;-67
2022/08/07 01:05:48;;;;;;;0.20;0.20;;;;;;;23.04;33.04;100536.53;5053751;28;20032;-67
2022/08/07 01:08:14;;;;;;;0.20;0.20;;;;;;;23.05;32.99;100538.19;5036186;28;20069;-67
2022/08/07 01:10:41;;;;;;;0.20;0.20;;;;;;;23.05;33.06;100532.75;5036271;28;20364;-67
2022/08/07 01:13:07;;;;;;;0.20;0.20;;;;;;;23.04;33.04;100542.00;5052859;28;20025;-67
2022/08/07 01:15:33;;;;;;;0.20;0.20;;;;;;;23.05;32.91;100541.75;5053534;28;20025;-67
2022/08/07 01:17:58;;;;;;;0.20;0.20;;;;;;;23.05;33.15;100543.63;5053578;28;20025;-67
2022/08/07 01:20:28;;;;;;;0.10;0.10;;;;;;;23.05;32.89;100546.38;5052634;28;20032;-67
2022/08/07 01:22:54;;;;;;;0.20;0.20;;;;;;;23.04;33.05;100542.84;5036101;28;20021;-67
2022/08/07 01:25:19;;;;;;;0.10;0.10;;;;;;;23.04;33.08;100540.09;5035646;28;20024;-67
2022/08/07 01:27:45;;;;;;;0.22;0.22;;;;;;;23.03;33.04;100549.34;5053383;28;20021;-67
2022/08/07 01:30:10;;;;;;;0.10;0.10;;;;;;;23.04;33.17;100551.00;5052364;28;20029;-67
2022/08/07 01:32:36;;;;;;;0.20;0.20;;;;;;;23.03;33.19;100546.63;5051150;28;20060;-67
2022/08/07 01:35:01;;;;;;;0.15;0.15;;;;;;;23.01;33.04;100543.34;5051998;28;20029;-67
2022/08/07 01:37:27;;;;;;;0.13;0.10;;;;;;;23.03;33.14;100543.91;5053202;28;20036;-67
2022/08/07 01:39:53;;;;;;;0.20;0.20;;;;;;;23.02;33.14;100544.97;5052255;28;20029;-67
2022/08/07 01:42:18;;;;;;;0.20;0.20;;;;;;;23.03;33.30;100552.09;5051895;28;20468;-67
2022/08/07 01:44:44;;;;;;;0.20;0.20;;;;;;;23.04;32.99;100545.56;5053431;28;20075;-67
2022/08/07 01:47:09;;;;;;;0.10;0.10;;;;;;;23.04;33.29;100553.72;5053433;28;20459;-67
2022/08/07 01:49:35;;;;;;;0.20;0.20;;;;;;;23.04;33.30;100552.91;5053355;28;20474;-67
2022/08/07 01:52:01;;;;;;;0.20;0.20;;;;;;;23.03;33.24;100552.09;5052406;28;20025;-67
2022/08/07 01:54:26;;;;;;;0.28;0.20;;;;;;;23.04;33.30;100547.44;5051668;28;20371;-67
2022/08/07 01:56:55;;;;;;;0.10;0.10;;;;;;;23.03;33.27;100552.09;5036897;28;20028;-67
2022/08/07 01:59:31;;;;;;;0.10;0.10;;;;;;;23.03;33.19;100552.09;5071881;28;20070;-67
2022/08/07 02:02:04;;;;;;;0.10;0.10;;;;;;;23.02;33.46;100544.97;5072084;28;20367;-67
2022/08/07 02:04:35;;;;;;;0.17;0.17;;;;;;;23.02;33.51;100549.63;5072011;28;20036;-67
2022/08/07 02:07:00;;;;;;;0.20;0.20;;;;;;;23.02;33.38;100555.88;5071736;28;20020;-67
2022/08/07 02:09:26;;;;;;;0.10;0.10;;;;;;;23.02;33.41;100544.97;5071637;28;20031;-67
2022/08/07 02:11:51;;;;;;;0.10;0.10;;;;;;;23.00;33.26;100540.91;5054974;28;20028;-67
2022/08/07 02:14:17;;;;;;;0.10;0.10;;;;;;;23.01;33.32;100545.28;5055241;28;20021;-67
2022/08/07 02:16:44;;;;;;;0.10;0.10;;;;;;;23.03;33.44;100545.81;5071884;28;20029;-67
2022/08/07 02:19:10;;;;;;;0.10;0.10;;;;;;;23.02;33.25;100550.44;5072910;28;20382;-67
2022/08/07 02:21:36;;;;;;;0.20;0.20;;;;;;;23.02;33.41;100544.16;5073099;28;20028;-67
2022/08/07 02:24:02;;;;;;;0.17;0.17;;;;;;;23.02;33.28;100555.88;5054907;28;20536;-67
2022/08/07 02:26:27;;;;;;;0.10;0.10;;;;;;;23.01;33.48;100562.44;5072701;28;20029;-67
2022/08/07 02:28:53;;;;;;;0.20;0.20;;;;;;;23.02;33.47;100561.34;5071441;28;20024;-67
2022/08/07 02:31:18;;;;;;;0.20;0.20;;;;;;;23.02;33.23;100566.78;5054763;28;20085;-67
2022/08/07 02:33:43;;;;;;;0.10;0.10;;;;;;;23.01;33.31;100562.44;5072369;28;20090;-67
2022/08/07 02:36:09;;;;;;;0.20;0.20;;;;;;;23.03;33.31;100568.44;5071642;28;20021;-67
2022/08/07 02:38:36;;;;;;;0.20;0.20;;;;;;;23.02;33.33;100571.41;5071796;28;20025;-67
2022/08/07 02:41:01;;;;;;;0.20;0.20;;;;;;;23.02;33.49;100571.41;5054705;28;20025;-67
2022/08/07 02:43:27;;;;;;;0.10;0.10;;;;;;;23.01;33.58;100573.34;5073668;28;20032;-67
2022/08/07 02:45:52;;;;;;;0.15;0.15;;;;;;;23.02;33.58;100571.41;5075440;28;20086;-67
2022/08/07 02:48:18;;;;;;;0.10;0.10;;;;;;;23.01;33.41;100565.16;5058422;28;20454;-67
2022/08/07 02:50:43;;;;;;;0.20;0.20;;;;;;;23.02;33.40;100576.88;5076573;28;20020;-67
2022/08/07 02:53:11;;;;;;;0.20;0.20;;;;;;;23.01;33.32;100573.34;5075217;28;20419;-67
2022/08/07 02:55:38;;;;;;;0.15;0.15;;;;;;;23.02;33.41;100579.59;5058705;28;20056;-67
2022/08/07 02:58:06;;;;;;;0.10;0.10;;;;;;;22.99;33.71;100578.25;5064617;28;20146;-67
2022/08/07 03:00:34;;;;;;;0.10;0.10;;;;;;;23.00;33.79;100590.75;5054840;28;20028;-67
2022/08/07 03:03:00;;;;;;;0.20;0.10;;;;;;;23.01;33.59;100591.59;5056102;28;20116;-67
2022/08/07 03:05:25;;;;;;;0.20;0.20;;;;;;;23.02;33.48;100587.78;5038531;28;20025;-67
2022/08/07 03:07:51;;;;;;;0.10;0.10;;;;;;;23.03;33.60;100598.41;5055089;28;20481;-67
2022/08/07 03:10:16;;;;;;;0.10;0.10;;;;;;;23.01;33.49;100584.25;5054768;28;20025;-67
2022/08/07 03:12:43;;;;;;;0.10;0.10;;;;;;;23.02;33.52;100593.22;5055943;28;20059;-67
2022/08/07 03:15:09;;;;;;;0.10;0.10;;;;;;;23.02;33.73;100590.50;5054888;28;20025;-67
2022/08/07 03:17:36;;;;;;;0.20;0.20;;;;;;;23.02;33.72;100579.59;5038329;28;20516;-67
2022/08/07 03:20:01;;;;;;;0.20;0.20;;;;;;;23.01;33.91;100589.69;5054846;28;20094;-67
2022/08/07 03:22:27;;;;;;;0.20;0.20;;;;;;;23.00;33.91;100588.03;5037929;28;20100;-67
2022/08/07 03:24:52;;;;;;;0.20;0.20;;;;;;;23.01;33.77;100588.88;5038010;28;20032;-67
2022/08/07 03:27:18;;;;;;;0.20;0.20;;;;;;;23.01;33.77;100595.16;5055907;28;20017;-67
2022/08/07 03:29:50;;;;;;;0.20;0.20;;;;;;;23.00;34.15;100590.75;5054711;28;20422;-67
2022/08/07 03:32:17;;;;;;;0.20;0.20;;;;;;;23.01;33.91;100595.16;5055422;28;20057;-67
2022/08/07 03:34:44;;;;;;;0.10;0.10;;;;;;;23.00;33.96;100593.50;5055412;28;20102;-67
2022/08/07 03:37:09;;;;;;;0.20;0.20;;;;;;;23.01;34.15;100600.59;5054473;28;20131;-67
2022/08/07 03:39:35;;;;;;;0.20;0.20;;;;;;;22.99;34.24;100594.59;5037904;28;20032;-67
2022/08/07 03:42:04;;;;;;;0.20;0.20;;;;;;;23.00;34.07;100600.84;5054111;28;20379;-67
2022/08/07 03:44:31;;;;;;;0.20;0.20;;;;;;;23.00;34.14;100593.50;5055295;28;20025;-67
2022/08/07 03:46:56;;;;;;;0.10;0.10;;;;;;;23.01;34.31;100597.06;5054236;28;20028;-67
2022/08/07 03:49:21;;;;;;;0.20;0.20;;;;;;;23.00;34.48;100607.13;5054362;28;20478;-67
2022/08/07 03:51:47;;;;;;;0.20;0.20;;;;;;;23.01;34.36;100606.03;5055357;28;20028;-67
2022/08/07 03:54:12;;;;;;;0.20;0.20;;;;;;;23.01;34.42;100613.41;5055201;28;20367;-67
2022/08/07 03:56:38;;;;;;;0.10;0.10;;;;;;;23.01;34.51;100600.59;5053199;28;20037;-67
2022/08/07 03:59:04;;;;;;;0.20;0.20;;;;;;;23.00;34.41;100607.13;5071662;28;20026;-67
2022/08/07 04:01:29;;;;;;;0.20;0.20;;;;;;;23.02;34.61;100609.59;5075273;28;20016;-67
2022/08/07 04:03:55;;;;;;;0.20;0.20;;;;;;;22.97;34.73;100599.47;5074901;28;20082;-67
2022/08/07 04:06:20;;;;;;;0.20;0.20;;;;;;;23.01;34.76;100611.50;5075180;28;20033;-67
2022/08/07 04:08:45;;;;;;;0.20;0.20;;;;;;;23.02;34.75;100623.22;5075057;28;20017;-67
2022/08/07 04:11:11;;;;;;;0.10;0.10;;;;;;;23.02;34.83;100623.22;5075079;28;20024;-67
2022/08/07 04:13:36;;;;;;;0.20;0.20;;;;;;;23.02;34.93;100615.03;5073451;28;20031;-67
2022/08/07 04:16:02;;;;;;;0.10;0.10;;;;;;;23.01;34.91;100630.56;5073376;28;20081;-67
2022/08/07 04:18:27;;;;;;;0.20;0.20;;;;;;;23.00;35.06;100628.91;5074631;28;20024;-67
2022/08/07 04:20:53;;;;;;;0.10;0.10;;;;;;;23.01;35.08;100624.31;5057031;28;20134;-67
2022/08/07 04:23:19;;;;;;;0.20;0.20;;;;;;;23.00;35.12;100634.38;5073642;28;20020;-67
2022/08/07 04:25:44;;;;;;;0.20;0.20;;;;;;;23.01;35.15;100636.03;5056574;28;20359;-69
2022/08/07 04:28:10;;;;;;;0.20;0.20;;;;;;;23.01;35.15;100637.94;5073213;28;20027;-67
2022/08/07 04:30:36;;;;;;;0.20;0.20;;;;;;;23.00;35.18;100639.81;5074686;28;20028;-67
2022/08/07 04:33:08;;;;;;;0.20;0.20;;;;;;;23.00;35.20;100639.81;5074295;28;20418;-67
2022/08/07 04:35:37;;;;;;;0.20;0.20;;;;;;;22.99;35.42;100649.09;5074542;28;20075;-67
2022/08/07 04:38:04;;;;;;;0.20;0.20;;;;;;;23.01;35.47;100646.13;5074216;28;20463;-67
2022/08/07 04:40:30;;;;;;;0.20;0.20;;;;;;;23.00;35.59;100650.72;5074264;28;20025;-67
2022/08/07 04:42:56;;;;;;;0.20;0.20;;;;;;;23.01;35.63;100651.56;5074394;28;20074;-67
2022/08/07 04:45:21;;;;;;;0.20;0.20;;;;;;;23.01;35.64;100651.56;5074347;28;20041;-67
2022/08/07 04:47:47;;;;;;;0.20;0.20;;;;;;;23.01;35.52;100654.28;5056536;28;20347;-67
2022/08/07 04:50:27;;;;;;;0.10;0.10;;;;;;;23.03;35.86;100652.13;5074290;28;20097;-67
2022/08/07 04:52:58;;;;;;;0.10;0.10;;;;;;;22.95;35.87;100647.97;5073892;28;20033;-67
2022/08/07 04:55:49;;;;;;;0.10;0.10;;;;;;;23.03;35.92;100655.66;5072895;28;20137;-68
2022/08/07 04:58:24;;;;;;;0.20;0.20;;;;;;;23.02;35.73;100647.75;5062191;28;20028;-68
2022/08/07 05:00:50;;;;;;;0.20;0.20;;;;;;;23.00;36.06;100655.38;5053920;28;20081;-68
2022/08/07 05:03:16;;;;;;;0.10;0.10;;;;;;;23.00;35.90;100660.81;5052638;28;20154;-68
2022/08/07 05:05:44;;;;;;;0.20;0.20;;;;;;;23.00;36.02;100664.34;5053734;28;20112;-68
2022/08/07 05:08:28;;;;;;;0.20;0.20;;;;;;;23.00;35.95;100667.06;5052509;28;20082;-68
2022/08/07 05:11:00;;;;;;;0.10;0.10;;;;;;;23.02;36.01;100669.53;5053572;28;20027;-68
2022/08/07 05:13:35;;;;;;;0.20;0.20;;;;;;;23.01;36.21;100663.28;5052439;28;20028;-68
2022/08/07 05:16:02;;;;;;;0.10;0.10;;;;;;;23.00;36.21;100666.28;5052577;28;20083;-68
2022/08/07 05:18:28;;;;;;;0.20;0.20;;;;;;;23.01;36.10;100676.91;5052696;28;20032;-68
2022/08/07 05:20:58;;;;;;;0.20;0.20;;;;;;;23.01;36.31;100668.72;5052548;28;20033;-68
2022/08/07 05:24:13;;;;;;;0.20;0.20;;;;;;;23.02;36.36;100675.81;5036119;28;20021;-68
2022/08/07 05:26:38;;;;;;;0.20;0.20;;;;;;;23.04;36.31;100676.38;5051282;28;20523;-68
2022/08/07 05:29:06;;;;;;;0.40;0.20;;;;;;;23.02;36.38;100672.28;5053642;28;20071;-68
2022/08/07 05:31:33;;;;;;;0.10;0.10;;;;;;;23.01;36.52;100679.63;5052165;28;20029;-68
2022/08/07 05:33:59;;;;;;;0.15;0.15;;;;;;;23.00;36.45;100680.72;5052374;28;20017;-68
2022/08/07 05:36:25;;;;;;;0.20;0.20;;;;;;;23.00;36.37;100686.16;5052266;28;20448;-68
2022/08/07 05:38:51;;;;;;;0.20;0.20;;;;;;;23.01;36.67;100685.09;5035831;28;20057;-68
2022/08/07 05:41:17;;;;;;;0.10;0.10;;;;;;;22.99;36.68;100692.72;5052267;28;20025;-68
2022/08/07 05:43:47;;;;;;;0.10;0.10;;;;;;;22.97;36.71;100694.03;5051913;28;20032;-68
2022/08/07 05:46:15;;;;;;;0.10;0.10;;;;;;;23.01;36.60;100690.53;5053633;28;20051;-68
2022/08/07 05:48:40;;;;;;;0.20;0.20;;;;;;;23.01;36.68;100689.72;5035451;28;20356;-68
2022/08/07 05:51:06;;;;;;;0.20;0.20;;;;;;;23.02;36.58;100696.81;5053041;28;20029;-68
2022/08/07 05:53:32;;;;;;;0.10;0.10;;;;;;;23.00;36.65;100697.06;5035601;28;20033;-68
2022/08/07 05:55:57;;;;;;;0.17;0.17;;;;;;;22.99;36.70;100709.06;5052942;28;20032;-68
2022/08/07 05:58:23;;;;;;;0.80;0.20;;;;;;;23.01;36.73;100698.72;5062982;28;20021;-68
2022/08/07 06:00:48;;;;;;;0.20;0.20;;;;;;;23.00;36.64;100704.44;5073346;28;20482;-68
2022/08/07 06:03:14;;;;;;;0.20;0.20;;;;;;;22.96;36.67;100708.78;5055616;28;20378;-68
2022/08/07 06:05:40;;;;;;;0.20;0.20;;;;;;;22.98;36.79;100707.41;5072059;28;20455;-68
2022/08/07 06:08:05;;;;;;;0.20;0.20;;;;;;;22.98;36.48;100703.88;5071706;28;20157;-68
2022/08/07 06:10:31;;;;;;;0.20;0.20;;;;;;;22.99;36.54;100713.66;5073222;28;20035;-68
2022/08/07 06:12:56;;;;;;;0.28;0.28;;;;;;;22.98;36.66;100712.84;5072865;28;20463;-68
2022/08/07 06:15:22;;;;;;;0.20;0.20;;;;;;;22.94;36.60;100711.75;5055099;28;20036;-68
2022/08/07 06:17:47;;;;;;;0.20;0.20;;;;;;;22.94;36.71;100722.66;5072530;28;20020;-68
2022/08/07 06:20:13;;;;;;;0.30;0.30;;;;;;;22.94;36.50;100722.66;5059875;28;20458;-68
2022/08/07 06:22:39;;;;;;;0.20;0.20;;;;;;;22.92;36.60;100713.09;5076010;28;20459;-68
2022/08/07 06:25:05;;;;;;;0.28;0.28;;;;;;;22.93;36.63;100722.91;5077264;28;20032;-68
2022/08/07 06:27:30;;;;;;;0.20;0.20;;;;;;;22.92;36.37;100722.09;5076969;28;20021;-68
2022/08/07 06:29:56;;;;;;;0.10;0.10;;;;;;;22.95;36.41;100727.00;5076452;28;20028;-68
2022/08/07 06:32:21;;;;;;;0.20;0.20;;;;;;;22.93;36.29;100736.53;5076930;28;20383;-68
2022/08/07 06:34:47;;;;;;;0.20;0.20;;;;;;;22.94;36.26;100732.72;5077058;28;20502;-68
2022/08/07 06:37:12;;;;;;;0.20;0.20;;;;;;;22.92;36.23;100740.34;5076938;28;20032;-68
2022/08/07 06:39:38;;;;;;;0.20;0.20;;;;;;;22.91;36.33;100750.44;5077186;28;20033;-68
2022/08/07 06:42:05;;;;;;;0.20;0.20;;;;;;;22.90;36.19;100748.78;5076963;28;20439;-68
2022/08/07 06:44:31;;;;;;;0.20;0.20;;;;;;;22.92;35.93;100741.19;5075789;28;20025;-68
2022/08/07 06:46:56;;;;;;;0.10;0.10;;;;;;;22.95;36.05;100751.53;5075128;28;20047;-68
2022/08/07 06:49:22;;;;;;;0.40;0.20;;;;;;;22.94;35.92;100752.63;5076375;28;20074;-68
2022/08/07 06:51:47;;;;;;;0.20;0.20;;;;;;;22.95;35.84;100754.25;5075386;28;20020;-68
2022/08/07 06:54:13;;;;;;;0.20;0.20;;;;;;;22.88;35.82;100762.66;5059062;28;20078;-68
2022/08/07 06:56:38;;;;;;;0.30;0.30;;;;;;;22.92;35.92;100746.63;5058641;28;20096;-68
2022/08/07 06:59:09;;;;;;;0.20;0.20;;;;;;;22.93;35.84;100758.34;5059362;28;20482;-68
2022/08/07 07:01:35;;;;;;;0.20;0.20;;;;;;;22.95;35.84;100750.72;5056501;28;20037;-68
2022/08/07 07:04:01;;;;;;;0.30;0.30;;;;;;;22.95;35.90;100754.25;5055141;28;20488;-68
2022/08/07 07:06:26;;;;;;;0.20;0.20;;;;;;;22.96;35.95;100764.09;5038698;28;20041;-68
2022/08/07 07:08:52;;;;;;;0.20;0.20;;;;;;;22.95;35.93;100761.63;5056318;28;20367;-68
2022/08/07 07:11:17;;;;;;;0.10;0.10;;;;;;;22.94;35.85;100769.00;5055886;28;20367;-69
2022/08/07 07:13:45;;;;;;;0.20;0.20;;;;;;;22.96;35.70;100763.28;5054947;28;20029;-68
2022/08/07 07:16:16;;;;;;;0.20;0.20;;;;;;;22.97;36.04;100760.25;5054588;28;20021;-68
2022/08/07 07:18:45;;;;;;;0.20;0.20;;;;;;;22.97;35.58;100764.91;5054876;28;20032;-68
2022/08/07 07:21:19;;;;;;;0.22;0.22;;;;;;;23.00;35.67;100767.94;5055515;28;20028;-68
2022/08/07 07:23:45;;;;;;;0.30;0.20;;;;;;;22.99;35.67;100770.91;5055734;28;20021;-68
2022/08/07 07:26:13;;;;;;;0.30;0.20;;;;;;;23.01;35.76;100760.59;5038104;28;20025;-68
2022/08/07 07:28:45;;;;;;;0.30;0.30;;;;;;;22.99;35.69;100774.47;5054458;28;20029;-68
2022/08/07 07:31:30;;;;;;;0.38;0.30;;;;;;;23.02;35.76;100765.75;5054296;28;20089;-68
2022/08/07 07:33:58;;;;;;;0.25;0.20;;;;;;;22.94;35.86;100763.53;5055862;28;20124;-68
2022/08/07 07:36:24;;;;;;;0.20;0.20;;;;;;;23.00;35.53;100761.66;5054230;28;20021;-68
2022/08/07 07:38:49;;;;;;;0.22;0.20;;;;;;;22.98;35.49;100766.56;5037944;28;20109;-68
2022/08/07 07:41:15;;;;;;;0.20;0.20;;;;;;;22.98;35.50;100774.75;5037636;28;20025;-67
2022/08/07 07:43:41;;;;;;;0.20;0.20;;;;;;;22.96;35.36;100764.09;5055447;28;20056;-67
2022/08/07 07:46:06;;;;;;;0.20;0.20;;;;;;;23.00;35.50;100775.28;5055240;28;20394;-67
2022/08/07 07:48:32;;;;;;;0.20;0.20;;;;;;;23.01;35.29;100775.03;5037564;28;20037;-67
2022/08/07 07:50:58;;;;;;;0.20;0.20;;;;;;;22.97;35.42;100771.16;5054272;28;20029;-67
2022/08/07 07:53:23;;;;;;;0.25;0.20;;;;;;;23.01;35.28;100774.22;5053978;28;20025;-67
2022/08/07 07:55:54;;;;;;;0.20;0.20;;;;;;;23.01;35.35;100776.94;5053829;28;20028;-67
2022/08/07 07:58:19;;;;;;;0.20;0.20;;;;;;;23.00;35.05;100770.66;5045807;28;20021;-67
2022/08/07 08:00:45;;;;;;;0.20;0.20;;;;;;;23.02;35.06;100779.38;5057186;28;20078;-67
2022/08/07 08:03:12;;;;;;;0.38;0.30;;;;;;;23.03;34.86;100783.75;5075248;28;20082;-67
2022/08/07 08:05:38;;;;;;;0.20;0.20;;;;;;;23.01;34.81;100775.03;5057535;28;20031;-67
2022/08/07 08:08:04;;;;;;;0.38;0.30;;;;;;;23.00;34.92;100781.56;5073922;28;20103;-67
2022/08/07 08:10:29;;;;;;;0.30;0.30;;;;;;;23.04;34.60;100774.50;5056935;28;20449;-67
2022/08/07 08:12:55;;;;;;;0.30;0.30;;;;;;;23.03;34.83;100781.03;5075132;28;20078;-67
2022/08/07 08:15:20;;;;;;;0.20;0.20;;;;;;;23.02;34.63;100790.28;5056831;28;20078;-67
2022/08/07 08:17:46;;;;;;;0.20;0.20;;;;;;;23.03;34.86;100786.50;5075697;28;20028;-67
2022/08/07 08:20:11;;;;;;;0.30;0.30;;;;;;;23.04;34.61;100781.84;5073842;28;20423;-67
2022/08/07 08:28:27;;;;;;;0.30;0.30;;;;;;;23.05;34.51;100778.06;5059788;28;20145;-67
2022/08/07 08:30:56;;;;;;;0.43;0.20;;;;;;;23.06;34.53;100787.91;5073028;28;20032;-68
2022/08/07 08:33:22;;;;;;;0.20;0.20;;;;;;;23.03;34.35;100780.22;5073225;28;20049;-68
2022/08/07 08:35:48;;;;;;;0.20;0.20;;;;;;;23.02;34.55;100782.09;5056447;28;20540;-68
2022/08/07 08:38:14;;;;;;;0.20;0.20;;;;;;;23.06;34.51;100780.56;5056775;28;20021;-68
2022/08/07 08:40:43;;;;;;;0.22;0.22;;;;;;;23.06;34.08;100780.56;5073209;28;20020;-68
2022/08/07 08:43:32;;;;;;;0.30;0.22;;;;;;;23.08;34.33;100780.28;5073015;28;20036;-68
2022/08/07 08:46:05;;;;;;;0.20;0.20;;;;;;;23.07;34.34;100765.00;5056945;28;20025;-68
2022/08/07 08:48:43;;;;;;;0.20;0.20;;;;;;;23.08;34.19;100774.84;5056734;28;20024;-68
2022/08/07 08:51:34;;;;;;;0.20;0.20;;;;;;;23.11;34.44;100773.47;5073055;28;20035;-67
2022/08/07 08:54:13;;;;;;;0.20;0.20;;;;;;;23.10;34.10;100769.94;5069422;28;20059;-67
2022/08/07 08:56:42;;;;;;;0.20;0.20;;;;;;;23.13;34.10;100784.94;5072942;28;20035;-67
2022/08/07 08:59:24;;;;;;;0.30;0.30;;;;;;;23.12;34.47;100778.69;5060306;28;20031;-67
2022/08/07 09:02:27;;;;;;;0.20;0.20;;;;;;;23.14;34.53;100786.59;5054243;28;20029;-67
2022/08/07 09:04:57;;;;;;;0.20;0.20;;;;;;;23.15;34.29;100777.34;5053829;28;20029;-67
2022/08/07 09:07:49;;;;;;;0.10;0.10;;;;;;;23.13;34.40;100784.94;5036625;28;20033;-67
2022/08/07 09:10:52;;;;;;;0.17;0.17;;;;;;;23.16;34.13;100789.88;5052924;28;20021;-67
2022/08/07 09:13:31;;;;;;;0.10;0.10;;;;;;;23.17;33.89;100786.06;5011883;28;20034;-67
2022/08/07 09:16:07;;;;;;;0.20;0.20;;;;;;;23.16;34.21;100790.72;5011825;28;20061;-67
2022/08/07 09:18:54;;;;;;;0.63;0.30;;;;;;;23.14;34.38;100795.59;4996336;28;20069;-67
2022/08/07 09:21:35;;;;;;;0.57;0.20;;;;;;;23.17;34.70;100791.53;4997563;28;20037;-67
2022/08/07 09:24:09;;;;;;;0.22;0.22;;;;;;;23.17;34.03;100799.72;5013878;28;20057;-67
2022/08/07 09:26:49;;;;;;;0.20;0.20;;;;;;;23.21;34.33;100798.91;5015915;28;20480;-67
2022/08/07 09:29:35;;;;;;;0.20;0.20;;;;;;;23.21;33.67;100804.34;4999197;28;20173;-67
2022/08/07 09:32:23;;;;;;;0.20;0.20;;;;;;;23.20;33.72;100801.91;5002744;28;20108;-67
2022/08/07 09:35:01;;;;;;;0.30;0.28;;;;;;;23.20;33.96;100793.75;5013885;28;20484;-67
2022/08/07 09:37:58;;;;;;;0.20;0.20;;;;;;;23.22;34.17;100800.56;5014522;28;20123;-67
2022/08/07 09:40:37;;;;;;;0.20;0.20;;;;;;;23.23;33.97;100809.56;4996338;28;20038;-67
2022/08/07 09:43:40;;;;;;;0.20;0.20;;;;;;;23.24;34.01;100803.03;4999381;28;20109;-67
2022/08/07 09:46:32;;;;;;;0.10;0.10;;;;;;;23.22;34.07;100805.19;5053688;28;20025;-67
2022/08/07 09:49:15;;;;;;;0.20;0.20;;;;;;;23.21;33.67;100807.09;5053137;28;20475;-67
2022/08/07 09:52:00;;;;;;;0.20;0.20;;;;;;;23.20;33.88;100808.19;5037346;28;20412;-67
2022/08/07 09:54:32;;;;;;;0.10;0.10;;;;;;;23.21;33.81;100812.53;5052342;28;20033;-67
2022/08/07 09:57:13;;;;;;;0.20;0.20;;;;;;;23.23;33.64;100812.28;5053080;28;20113;-67
2022/08/07 09:59:57;;;;;;;0.10;0.10;;;;;;;23.27;33.41;100807.13;5070596;28;20493;-67
2022/08/07 10:02:48;;;;;;;0.28;0.28;;;;;;;23.23;33.79;100804.94;5073015;28;20036;-67
2022/08/07 10:05:42;;;;;;;0.20;0.20;;;;;;;23.24;33.34;100814.75;5073020;28;20031;-67
2022/08/07 10:08:26;;;;;;;0.30;0.30;;;;;;;23.27;33.69;100807.97;5073241;28;20098;-67
2022/08/07 10:11:16;;;;;;;0.15;0.10;;;;;;;23.30;33.35;100815.63;5073348;28;20029;-67
2022/08/07 10:13:41;;;;;;;0.20;0.20;;;;;;;23.31;32.99;100809.06;5073401;28;20085;-67
2022/08/07 10:16:21;;;;;;;0.20;0.20;;;;;;;23.29;33.06;100803.06;5073104;28;20467;-67
2022/08/07 10:19:02;;;;;;;0.10;0.10;;;;;;;23.28;33.41;100798.69;5071917;28;20084;-67
2022/08/07 10:22:11;;;;;;;0.22;0.22;;;;;;;23.37;33.24;100793.56;5073176;28;20436;-67
2022/08/07 10:24:36;;;;;;;0.20;0.20;;;;;;;23.33;33.33;100792.44;5030913;28;20481;-67
2022/08/07 10:27:21;;;;;;;0.10;0.10;;;;;;;23.32;33.33;100794.38;5030716;28;20049;-67
2022/08/07 10:30:05;;;;;;;0.20;0.20;;;;;;;23.29;33.29;100783.97;5030786;28;20041;-67
2022/08/07 10:32:46;;;;;;;0.10;0.10;;;;;;;23.33;33.48;100787.00;5030588;28;20407;-67
2022/08/07 10:35:25;;;;;;;0.10;0.10;;;;;;;23.32;33.42;100797.09;5015659;28;20103;-67
2022/08/07 10:38:24;;;;;;;0.20;0.20;;;;;;;23.34;33.32;100799.56;5014429;28;20033;-67
2022/08/07 10:40:54;;;;;;;0.20;0.20;;;;;;;23.31;33.47;100789.16;5030730;28;20033;-67
2022/08/07 10:43:32;;;;;;;0.40;0.20;;;;;;;23.33;33.29;100789.72;5014747;28;20037;-67
2022/08/07 10:46:04;;;;;;;0.30;0.30;;;;;;;23.32;32.76;100794.38;5030582;28;20460;-67
2022/08/07 10:48:47;;;;;;;0.20;0.20;;;;;;;23.32;32.90;100788.91;5030738;28;20091;-67
2022/08/07 10:51:28;;;;;;;0.20;0.20;;;;;;;23.36;33.11;100787.28;5030609;28;20491;-67
2022/08/07 10:54:14;;;;;;;0.20;0.20;;;;;;;23.37;32.79;100782.63;5014147;28;20025;-67
2022/08/07 10:57:02;;;;;;;0.10;0.10;;;;;;;23.37;32.28;100785.38;5072494;28;20032;-67
2022/08/07 11:00:09;;;;;;;0.13;0.13;;;;;;;23.40;33.04;100790.31;5056434;28;20049;-67
2022/08/07 11:02:35;;;;;;;0.10;0.10;;;;;;;23.38;32.14;100790.56;4994377;28;20095;-68
2022/08/07 11:05:36;;;;;;;0.10;0.10;;;;;;;23.35;32.99;100787.53;5012785;28;20499;-67
2022/08/07 11:08:10;;;;;;;0.20;0.20;;;;;;;23.37;32.69;100791.66;5014412;28;20550;-67
2022/08/07 11:10:58;;;;;;;0.20;0.20;;;;;;;23.36;32.89;100790.00;5014402;28;20068;-68
2022/08/07 11:13:55;;;;;;;0.20;0.20;;;;;;;23.41;32.52;100792.78;5000068;28;20060;-68
2022/08/07 11:16:43;;;;;;;0.38;0.30;;;;;;;23.37;32.76;100797.13;4996943;28;20096;-67
2022/08/07 11:19:19;;;;;;;0.10;0.10;;;;;;;23.35;32.99;100780.22;5014466;28;20061;-67
2022/08/07 11:21:53;;;;;;;0.10;0.10;;;;;;;23.34;32.62;100784.00;4998868;28;20037;-67
2022/08/07 11:24:20;;;;;;;0.15;0.15;;;;;;;23.35;32.52;100774.75;4998865;28;20034;-67
2022/08/07 11:27:06;;;;;;;0.20;0.20;;;;;;;23.34;32.69;100781.28;5014095;28;20137;-67
2022/08/07 11:29:37;;;;;;;0.20;0.20;;;;;;;23.35;32.51;100772.03;4998432;28;20030;-67
2022/08/07 11:32:12;;;;;;;0.10;0.10;;;;;;;23.36;32.58;100773.66;5013755;28;20459;-67
2022/08/07 11:34:51;;;;;;;0.20;0.20;;;;;;;23.36;32.41;100775.56;4997882;28;20054;-67
2022/08/07 11:37:41;;;;;;;0.13;0.13;;;;;;;23.40;32.66;100771.22;5006408;28;20044;-67
2022/08/07 11:40:30;;;;;;;0.10;0.10;;;;;;;23.34;32.48;100786.72;5055722;28;20032;-68
2022/08/07 11:43:04;;;;;;;0.20;0.20;;;;;;;23.37;32.33;100786.22;5054190;28;20032;-68
2022/08/07 11:45:36;;;;;;;0.20;0.20;;;;;;;23.37;32.00;100788.94;5055312;28;20037;-68